createdAt,value
2019-02-07T00:01:07.997Z,65.00
2019-02-07T00:05:16.229Z,65.90
2019-02-07T00:09:24.334Z,67.40
2019-02-07T00:13:32.441Z,69.20
2019-02-07T00:17:40.556Z,71.00
2019-02-07T00:21:48.657Z,73.80
2019-02-07T00:25:56.783Z,75.00
2019-02-07T00:30:07.009Z,76.40
2019-02-07T00:34:15.117Z,77.70
2019-02-07T00:38:23.273Z,79.10
2019-02-07T00:42:31.418Z,79.90
2019-02-07T00:46:39.534Z,81.40
2019-02-07T00:50:47.921Z,82.20
2019-02-07T00:54:56.026Z,83.80
2019-02-07T00:59:04.561Z,85.60
2019-02-07T01:03:12.671Z,86.20
2019-02-07T01:07:20.782Z,87.10
2019-02-07T01:11:28.893Z,87.90
2019-02-07T01:15:37.029Z,88.60
2019-02-07T01:19:45.133Z,89.00
2019-02-07T01:23:53.252Z,89.30
2019-02-07T01:28:01.389Z,89.60
2019-02-07T01:32:09.505Z,90.00
2019-02-07T01:36:17.625Z,90.20
2019-02-07T01:40:25.753Z,90.40
2019-02-07T01:44:33.864Z,90.40
2019-02-07T01:48:41.994Z,90.40
2019-02-07T01:52:50.101Z,90.50
2019-02-07T01:56:58.212Z,90.50
2019-02-07T02:01:06.323Z,90.50
2019-02-07T02:05:15.601Z,90.50
2019-02-07T02:09:23.752Z,90.50
2019-02-07T02:13:31.852Z,90.10
2019-02-07T02:17:39.952Z,89.80
2019-02-07T02:21:48.093Z,89.40
2019-02-07T02:25:56.205Z,88.90
2019-02-07T02:30:06.632Z,88.60
2019-02-07T02:34:14.673Z,88.30
2019-02-07T02:38:22.774Z,87.90
2019-02-07T02:42:30.904Z,87.50
2019-02-07T02:46:39.002Z,87.30
2019-02-07T02:50:47.117Z,87.00
2019-02-07T02:54:56.848Z,87.00
2019-02-07T02:59:05.002Z,87.00
2019-02-07T03:03:17.444Z,86.70
2019-02-07T03:07:33.821Z,87.70
2019-02-07T03:11:47.202Z,87.00
2019-02-07T03:16:07.488Z,87.30
2019-02-07T03:20:24.814Z,87.50
2019-02-07T03:24:40.084Z,87.90
2019-02-07T03:29:00.410Z,88.30
2019-02-07T03:33:20.723Z,89.60
2019-02-07T03:37:45.133Z,89.20
2019-02-07T03:43:00.422Z,89.70
2019-02-07T03:47:13.576Z,90.10
2019-02-07T03:53:30.274Z,90.70
2019-02-07T03:59:50.854Z,90.80
2019-02-07T04:04:09.131Z,91.40
2019-02-07T04:08:22.705Z,91.70
2019-02-07T04:12:36.392Z,91.70
2019-02-07T04:16:49.643Z,91.90
2019-02-07T04:23:10.547Z,91.80
2019-02-07T04:27:38.117Z,91.80
2019-02-07T04:31:55.547Z,91.90
2019-02-07T04:36:11.621Z,91.80
2019-02-07T04:40:26.899Z,91.80
2019-02-07T04:45:39.206Z,91.90
2019-02-07T04:49:51.647Z,91.90
2019-02-07T04:54:23.091Z,92.00
2019-02-07T04:58:39.444Z,92.00
2019-02-07T05:02:54.783Z,91.90
2019-02-07T05:07:08.046Z,92.00
2019-02-07T05:11:22.449Z,92.00
2019-02-07T05:15:37.783Z,92.10
2019-02-07T05:19:50.129Z,92.40
2019-02-07T05:24:03.398Z,92.40
2019-02-07T05:28:20.731Z,92.50
2019-02-07T05:32:36.362Z,92.60
2019-02-07T05:36:52.360Z,92.60
2019-02-07T05:41:05.809Z,92.80
2019-02-07T05:45:19.154Z,92.80
2019-02-07T05:49:32.280Z,93.10
2019-02-07T05:53:44.672Z,93.20
2019-02-07T05:57:58.402Z,93.50
2019-02-07T06:02:12.011Z,93.50
2019-02-07T06:06:25.609Z,93.50
2019-02-07T06:10:55.237Z,93.50
2019-02-07T06:15:11.462Z,93.80
2019-02-07T06:19:26.857Z,93.90
2019-02-07T06:23:46.360Z,93.80
2019-02-07T06:27:59.733Z,93.70
2019-02-07T06:32:15.914Z,93.80
2019-02-07T06:36:29.304Z,93.90
2019-02-07T06:40:42.837Z,94.00
2019-02-07T06:44:56.317Z,93.90
2019-02-07T06:49:09.825Z,94.10
2019-02-07T06:53:23.502Z,94.00
2019-02-07T06:57:35.958Z,94.20
2019-02-07T07:01:49.439Z,94.10
2019-02-07T07:06:03.875Z,94.00
2019-02-07T07:10:17.972Z,93.80
2019-02-07T07:14:32.442Z,93.90
2019-02-07T07:18:51.784Z,94.00
2019-02-07T07:23:08.092Z,93.90
2019-02-07T07:27:21.692Z,93.80
2019-02-07T07:32:32.624Z,93.80
2019-02-07T07:36:50.126Z,93.70
2019-02-07T07:41:11.646Z,93.80
2019-02-07T07:45:26.035Z,93.60
2019-02-07T07:49:59.599Z,93.30
2019-02-07T07:56:17.750Z,93.30
2019-02-07T08:00:35.098Z,93.30
2019-02-07T08:04:53.423Z,93.50
2019-02-07T08:09:05.829Z,93.40
2019-02-07T08:13:18.231Z,93.30
2019-02-07T08:17:33.508Z,93.20
2019-02-07T08:21:49.858Z,93.10
2019-02-07T08:26:02.359Z,93.00
2019-02-07T08:30:14.855Z,92.80
2019-02-07T08:34:30.171Z,92.70
2019-02-07T08:38:43.754Z,92.70
2019-02-07T08:42:57.459Z,92.90
2019-02-07T08:47:10.984Z,92.90
2019-02-07T08:51:26.421Z,92.80
2019-02-07T08:56:40.630Z,93.10
2019-02-07T09:00:53.017Z,93.20
2019-02-07T09:05:12.356Z,93.30
2019-02-07T09:09:42.948Z,93.10
2019-02-07T09:14:10.355Z,93.20
2019-02-07T09:18:23.751Z,93.60
2019-02-07T09:22:38.156Z,93.30
2019-02-07T09:26:54.427Z,92.60
2019-02-07T09:33:14.640Z,91.70
2019-02-07T09:37:27.030Z,91.20
2019-02-07T09:42:38.424Z,90.80
2019-02-07T09:46:51.778Z,90.10
2019-02-07T09:51:04.255Z,89.70
2019-02-07T09:55:51.235Z,88.70
2019-02-07T10:00:18.850Z,88.30
2019-02-07T10:04:32.248Z,87.30
2019-02-07T10:08:47.591Z,86.10
2019-02-07T10:13:58.912Z,84.60
2019-02-07T10:19:12.015Z,84.50
2019-02-07T10:23:33.467Z,83.20
2019-02-07T10:27:47.734Z,80.20
2019-02-07T10:32:36.603Z,80.00
2019-02-07T10:36:48.992Z,79.40
2019-02-07T10:42:02.061Z,78.40
2019-02-07T10:46:32.913Z,78.90
2019-02-07T10:50:54.322Z,76.90
2019-02-07T10:55:07.936Z,75.60
2019-02-07T10:59:21.602Z,75.10
2019-02-07T11:03:35.275Z,74.00
2019-02-07T11:07:55.659Z,74.20
2019-02-07T11:12:12.894Z,73.70
2019-02-07T11:16:26.517Z,74.30
2019-02-07T11:20:39.809Z,72.70
2019-02-07T11:25:09.371Z,72.30
2019-02-07T11:29:22.942Z,71.30
2019-02-07T11:33:50.659Z,72.00
2019-02-07T11:38:09.033Z,72.00
2019-02-07T11:42:24.332Z,71.90
2019-02-07T11:46:37.990Z,71.40
2019-02-07T11:50:53.156Z,70.40
2019-02-07T11:56:11.374Z,70.60
2019-02-07T12:00:30.213Z,70.70
2019-02-07T12:06:52.668Z,69.90
2019-02-07T12:11:11.175Z,69.50
2019-02-07T12:17:33.269Z,70.60
2019-02-07T12:21:46.711Z,69.40
2019-02-07T12:25:59.156Z,69.10
2019-02-07T12:30:15.823Z,68.70
2019-02-07T12:34:31.179Z,67.40
2019-02-07T12:38:50.451Z,66.70
2019-02-07T12:43:03.972Z,66.10
2019-02-07T12:47:22.255Z,66.50
2019-02-07T12:51:36.520Z,66.40
2019-02-07T12:55:52.808Z,63.30
2019-02-07T13:00:06.145Z,62.70
2019-02-07T13:05:17.746Z,62.20
2019-02-07T13:09:31.387Z,61.10
2019-02-07T13:13:52.733Z,60.70
2019-02-07T13:18:20.230Z,60.90
2019-02-07T13:22:53.013Z,61.10
2019-02-07T13:27:07.265Z,59.90
2019-02-07T13:31:22.651Z,62.10
2019-02-07T13:37:42.911Z,62.40
2019-02-07T13:41:56.554Z,63.50
2019-02-07T13:46:18.214Z,63.60
2019-02-07T13:50:35.562Z,61.30
2019-02-07T13:54:48.823Z,61.90
2019-02-07T13:59:01.186Z,62.20
2019-02-07T14:03:16.433Z,61.60
2019-02-07T14:07:29.775Z,60.30
2019-02-07T14:11:44.150Z,61.50
2019-02-07T14:16:04.457Z,62.80
2019-02-07T14:20:18.006Z,63.10
2019-02-07T14:24:35.219Z,62.70
2019-02-07T14:28:47.577Z,62.90
2019-02-07T14:33:37.441Z,63.80
2019-02-07T14:37:50.803Z,64.50
2019-02-07T14:42:03.167Z,65.10
2019-02-07T14:46:16.527Z,64.90
2019-02-07T14:50:24.649Z,65.60
2019-02-07T14:54:32.781Z,65.80
2019-02-07T14:58:40.912Z,65.60
2019-02-07T15:02:49.059Z,65.00
2019-02-07T15:06:57.175Z,64.30
2019-02-07T15:11:05.444Z,64.30
2019-02-07T15:15:14.109Z,65.00
2019-02-07T15:19:22.239Z,65.40
2019-02-07T15:23:30.388Z,65.40
2019-02-07T15:27:38.521Z,65.60
2019-02-07T15:31:46.651Z,66.20
2019-02-07T15:35:54.777Z,66.50
2019-02-07T15:40:02.949Z,66.90
2019-02-07T15:44:11.058Z,66.90
2019-02-07T15:48:19.242Z,68.10
2019-02-07T15:52:27.375Z,68.40
2019-02-07T15:56:35.500Z,67.70
2019-02-07T16:00:48.865Z,68.10
2019-02-07T16:04:57.124Z,68.30
2019-02-07T16:09:07.346Z,68.70
2019-02-07T16:13:15.465Z,69.00
2019-02-07T16:17:23.598Z,69.30
2019-02-07T16:21:31.701Z,69.70
2019-02-07T16:25:39.821Z,70.00
2019-02-07T16:29:47.990Z,70.40
2019-02-07T16:33:56.105Z,71.20
2019-02-07T16:38:04.234Z,72.10
2019-02-07T16:42:12.347Z,72.70
2019-02-07T16:46:20.476Z,73.40
2019-02-07T16:50:28.917Z,73.90
2019-02-07T16:54:37.032Z,75.10
2019-02-07T16:58:45.160Z,75.00
2019-02-07T17:02:53.280Z,75.40
2019-02-07T17:07:01.389Z,75.70
2019-02-07T17:11:09.518Z,76.10
2019-02-07T17:15:17.688Z,76.10
2019-02-07T17:19:25.854Z,76.10
2019-02-07T17:23:33.965Z,76.30
2019-02-07T17:27:42.094Z,76.30
2019-02-07T17:31:50.204Z,76.20
2019-02-07T17:35:58.353Z,76.30
2019-02-07T17:40:09.780Z,76.50
2019-02-07T17:44:17.910Z,76.70
2019-02-07T17:48:26.018Z,77.00
2019-02-07T17:52:34.142Z,77.20
2019-02-07T17:56:42.322Z,77.40
2019-02-07T18:00:59.153Z,77.80
2019-02-07T18:05:07.327Z,78.20
2019-02-07T18:09:15.457Z,78.60
2019-02-07T18:13:23.597Z,79.30
2019-02-07T18:17:31.712Z,80.20
2019-02-07T18:21:39.838Z,80.90
2019-02-07T18:25:47.959Z,81.70
2019-02-07T18:29:56.124Z,82.50
2019-02-07T18:34:04.395Z,83.50
2019-02-07T18:38:12.563Z,83.50
2019-02-07T18:42:20.754Z,84.20
2019-02-07T18:46:28.914Z,84.40
2019-02-07T18:50:37.099Z,84.90
2019-02-07T18:54:45.375Z,85.40
2019-02-07T18:58:53.580Z,85.20
2019-02-07T19:03:01.806Z,85.30
2019-02-07T19:07:09.911Z,85.50
2019-02-07T19:11:18.074Z,85.70
2019-02-07T19:15:29.266Z,85.60
2019-02-07T19:19:37.430Z,85.60
2019-02-07T19:23:45.667Z,85.50
2019-02-07T19:27:53.843Z,85.50
2019-02-07T19:32:02.071Z,85.20
2019-02-07T19:36:10.229Z,85.70
2019-02-07T19:40:18.443Z,84.60
2019-02-07T19:44:26.595Z,84.20
2019-02-07T19:48:34.769Z,83.80
2019-02-07T19:52:42.995Z,83.60
2019-02-07T19:56:51.175Z,83.20
2019-02-07T20:00:59.323Z,83.00
2019-02-07T20:05:08.235Z,83.20
2019-02-07T20:09:16.493Z,83.40
2019-02-07T20:13:24.878Z,83.70
2019-02-07T20:17:33.035Z,83.90
2019-02-07T20:21:41.191Z,84.20
2019-02-07T20:25:49.372Z,84.60
2019-02-07T20:29:57.543Z,84.70
2019-02-07T20:34:05.737Z,85.30
2019-02-07T20:38:13.907Z,85.70
2019-02-07T20:42:22.064Z,86.20
2019-02-07T20:46:30.215Z,86.20
2019-02-07T20:50:38.381Z,86.20
2019-02-07T20:54:46.533Z,86.00
2019-02-07T20:58:54.699Z,85.80
2019-02-07T21:03:03.067Z,85.70
2019-02-07T21:07:11.226Z,85.50
2019-02-07T21:11:19.374Z,85.10
2019-02-07T21:15:27.536Z,85.00
2019-02-07T21:19:35.775Z,84.80
2019-02-07T21:23:43.937Z,84.60
2019-02-07T21:27:52.101Z,84.50
2019-02-07T21:32:00.276Z,84.10
2019-02-07T21:36:08.432Z,84.10
2019-02-07T21:40:18.979Z,83.70
2019-02-07T21:44:27.127Z,83.70
2019-02-07T21:48:35.291Z,83.80
2019-02-07T21:52:43.455Z,83.80
2019-02-07T21:56:51.734Z,83.80
2019-02-07T22:00:59.920Z,83.70
2019-02-07T22:05:08.095Z,83.70
2019-02-07T22:09:16.302Z,83.80
2019-02-07T22:13:24.445Z,84.00
2019-02-07T22:17:32.608Z,83.80
2019-02-07T22:21:40.803Z,83.90
2019-02-07T22:25:48.966Z,84.00
2019-02-07T22:29:57.128Z,84.10
2019-02-07T22:34:05.294Z,84.00
2019-02-07T22:38:13.460Z,83.90
2019-02-07T22:42:21.742Z,84.10
2019-02-07T22:46:29.967Z,84.10
2019-02-07T22:50:38.219Z,84.10
2019-02-07T22:54:46.370Z,83.90
2019-02-07T22:58:54.549Z,84.10
2019-02-07T23:03:02.768Z,84.20
2019-02-07T23:07:11.938Z,84.30
2019-02-07T23:11:20.088Z,84.60
2019-02-07T23:15:28.247Z,84.40
2019-02-07T23:19:36.435Z,84.50
2019-02-07T23:23:44.628Z,84.70
2019-02-07T23:27:52.847Z,84.90
2019-02-07T23:32:01.006Z,84.90
2019-02-07T23:36:09.574Z,84.90
2019-02-07T23:40:17.762Z,85.20
2019-02-07T23:44:25.957Z,85.40
2019-02-07T23:48:34.134Z,85.50
2019-02-07T23:52:42.300Z,85.50
2019-02-07T23:56:50.443Z,85.50
